createdAt,value
2022-08-21T00:00:32.326Z,60.25
2022-08-21T00:04:22.257Z,60.25
2022-08-21T00:08:10.224Z,60.36
2022-08-21T00:11:58.106Z,60.56
2022-08-21T00:15:45.641Z,60.55
2022-08-21T00:19:33.152Z,60.63
2022-08-21T00:23:20.316Z,60.79
2022-08-21T00:27:07.876Z,60.95
2022-08-21T00:30:55.358Z,61.11
2022-08-21T00:34:42.846Z,61.12
2022-08-21T00:38:30.024Z,61.22
2022-08-21T00:42:17.472Z,61.17
2022-08-21T00:46:05.089Z,61.06
2022-08-21T00:49:52.563Z,60.92
2022-08-21T00:53:40.158Z,60.88
2022-08-21T00:57:07.521Z,61.05
2022-08-21T01:00:55.561Z,60.97
2022-08-21T01:04:43.106Z,60.98
2022-08-21T01:08:30.577Z,60.98
2022-08-21T01:12:18.180Z,60.99
2022-08-21T01:16:05.261Z,60.96
2022-08-21T01:19:40.428Z,60.91
2022-08-21T01:23:27.900Z,60.96
2022-08-21T01:27:15.381Z,60.92
2022-08-21T01:31:05.797Z,60.81
2022-08-21T01:34:52.666Z,60.80
2022-08-21T01:38:40.329Z,60.63
2022-08-21T01:42:27.562Z,60.55
2022-08-21T01:46:14.138Z,60.49
2022-08-21T01:50:01.605Z,60.44
2022-08-21T01:53:49.203Z,60.43
2022-08-21T01:57:36.707Z,60.96
2022-08-21T02:05:55.424Z,62.96
2022-08-21T02:09:45.726Z,63.21
2022-08-21T02:13:33.002Z,63.30
2022-08-21T02:17:19.845Z,63.85
2022-08-21T02:21:10.193Z,64.59
2022-08-21T02:24:57.422Z,65.54
2022-08-21T02:28:44.949Z,66.20
2022-08-21T02:32:32.109Z,66.92
2022-08-21T02:36:19.380Z,67.89
2022-08-21T02:40:06.978Z,68.57
2022-08-21T02:43:54.547Z,69.29
2022-08-21T02:47:41.698Z,69.51
2022-08-21T02:51:32.050Z,70.54
2022-08-21T02:55:19.217Z,70.87
2022-08-21T02:59:05.793Z,71.39
2022-08-21T03:02:48.913Z,71.95
2022-08-21T03:06:36.461Z,72.63
2022-08-21T03:10:23.324Z,72.99
2022-08-21T03:14:10.549Z,73.81
2022-08-21T03:17:58.008Z,73.86
2022-08-21T03:21:10.979Z,74.32
2022-08-21T03:23:42.803Z,74.64
2022-08-21T03:26:39.012Z,75.03
2022-08-21T03:29:10.113Z,75.28
2022-08-21T03:31:44.876Z,75.63
2022-08-21T03:34:12.540Z,75.79
2022-08-21T03:36:42.500Z,76.24
2022-08-21T03:39:13.125Z,76.57
2022-08-21T03:41:42.101Z,76.58
2022-08-21T03:44:08.799Z,76.83
2022-08-21T03:46:36.942Z,77.41
2022-08-21T03:49:04.625Z,77.84
2022-08-21T03:51:34.181Z,78.14
2022-08-21T03:54:01.753Z,78.64
2022-08-21T03:56:33.145Z,78.62
2022-08-21T03:59:00.357Z,78.55
2022-08-21T04:01:27.765Z,78.56
2022-08-21T04:03:57.373Z,78.57
2022-08-21T04:06:27.266Z,78.50
2022-08-21T04:08:54.091Z,78.73
2022-08-21T04:11:21.092Z,79.04
2022-08-21T04:13:50.348Z,79.20
2022-08-21T04:16:17.051Z,79.43
2022-08-21T04:18:43.778Z,79.53
2022-08-21T04:21:12.316Z,79.60
2022-08-21T04:23:40.394Z,79.53
2022-08-21T04:26:07.374Z,79.68
2022-08-21T04:28:34.003Z,79.87
2022-08-21T04:31:00.648Z,79.89
2022-08-21T04:33:28.324Z,79.69
2022-08-21T04:35:55.196Z,79.43
2022-08-21T04:38:22.295Z,80.04
2022-08-21T04:40:50.445Z,80.34
2022-08-21T04:43:19.270Z,80.46
2022-08-21T04:45:49.556Z,80.26
2022-08-21T04:48:20.452Z,80.32
2022-08-21T04:51:06.733Z,80.32
2022-08-21T04:53:57.780Z,80.17
2022-08-21T04:56:31.725Z,80.12
2022-08-21T04:59:04.116Z,80.20
2022-08-21T05:01:35.115Z,80.05
2022-08-21T05:04:06.054Z,80.28
2022-08-21T05:06:39.565Z,80.27
2022-08-21T05:09:09.658Z,80.28
2022-08-21T05:11:38.045Z,80.30
2022-08-21T05:14:21.429Z,80.25
2022-08-21T05:16:49.298Z,80.51
2022-08-21T05:19:20.343Z,80.69
2022-08-21T05:21:50.636Z,80.67
2022-08-21T05:24:24.843Z,80.82
2022-08-21T05:26:52.997Z,81.20
2022-08-21T05:29:20.427Z,81.33
2022-08-21T05:31:48.283Z,81.35
2022-08-21T05:34:18.831Z,81.94
2022-08-21T05:36:46.352Z,82.31
2022-08-21T05:39:13.943Z,82.27
2022-08-21T05:41:40.774Z,82.56
2022-08-21T05:44:10.081Z,83.01
2022-08-21T05:46:39.187Z,82.98
2022-08-21T05:49:05.885Z,83.12
2022-08-21T05:51:32.520Z,82.70
2022-08-21T05:53:59.824Z,82.69
2022-08-21T05:56:26.578Z,82.78
2022-08-21T05:58:54.084Z,82.76
2022-08-21T06:01:21.318Z,82.81
2022-08-21T06:03:49.145Z,82.82
2022-08-21T06:06:16.174Z,82.83
2022-08-21T06:08:43.443Z,82.52
2022-08-21T06:11:11.085Z,82.13
2022-08-21T06:13:39.288Z,82.34
2022-08-21T06:16:16.030Z,82.96
2022-08-21T06:18:44.823Z,83.03
2022-08-21T06:21:13.747Z,83.17
2022-08-21T06:23:41.557Z,83.20
2022-08-21T06:26:09.138Z,83.08
2022-08-21T06:28:37.489Z,82.94
2022-08-21T06:31:30.639Z,82.67
2022-08-21T06:33:57.904Z,82.70
2022-08-21T06:36:25.078Z,82.93
2022-08-21T06:38:51.978Z,82.69
2022-08-21T06:41:23.820Z,82.63
2022-08-21T06:43:51.177Z,82.54
2022-08-21T06:46:17.861Z,82.25
2022-08-21T06:48:44.548Z,82.35
2022-08-21T06:51:11.541Z,82.47
2022-08-21T06:53:38.482Z,82.38
2022-08-21T06:56:05.510Z,82.70
2022-08-21T06:58:32.761Z,82.64
2022-08-21T07:01:01.138Z,82.64
2022-08-21T07:03:37.390Z,82.81
2022-08-21T07:06:06.755Z,82.93
2022-08-21T07:08:34.323Z,83.32
2022-08-21T07:11:03.696Z,83.52
2022-08-21T07:13:30.492Z,83.49
2022-08-21T07:16:01.620Z,83.74
2022-08-21T07:18:30.572Z,83.86
2022-08-21T07:20:57.321Z,84.05
2022-08-21T07:23:28.473Z,84.46
2022-08-21T07:25:55.821Z,84.81
2022-08-21T07:28:23.209Z,84.73
2022-08-21T07:31:00.105Z,84.76
2022-08-21T07:33:28.753Z,84.84
2022-08-21T07:35:55.723Z,84.81
2022-08-21T07:38:23.443Z,84.70
2022-08-21T07:40:53.368Z,84.43
2022-08-21T07:43:22.055Z,84.44
2022-08-21T07:45:54.332Z,84.27
2022-08-21T07:48:24.390Z,84.28
2022-08-21T07:50:51.583Z,84.13
2022-08-21T07:53:18.301Z,83.75
2022-08-21T07:55:45.013Z,83.75
2022-08-21T07:58:11.602Z,83.61
2022-08-21T08:00:38.267Z,83.51
2022-08-21T08:03:04.917Z,83.62
2022-08-21T08:05:32.471Z,83.63
2022-08-21T08:07:59.236Z,83.69
2022-08-21T08:10:26.813Z,83.60
2022-08-21T08:12:54.942Z,83.50
2022-08-21T08:15:28.324Z,83.39
2022-08-21T08:17:57.169Z,83.61
2022-08-21T08:20:27.076Z,83.45
2022-08-21T08:22:55.642Z,83.69
2022-08-21T08:25:23.738Z,83.76
2022-08-21T08:27:50.505Z,83.90
2022-08-21T08:30:19.213Z,83.79
2022-08-21T08:32:47.025Z,83.56
2022-08-21T08:35:14.697Z,83.27
2022-08-21T08:37:43.691Z,82.99
2022-08-21T08:40:43.028Z,82.89
2022-08-21T08:43:13.457Z,83.00
2022-08-21T08:45:47.124Z,82.75
2022-08-21T08:48:31.868Z,82.75
2022-08-21T08:51:01.518Z,82.41
2022-08-21T08:53:46.542Z,82.19
2022-08-21T08:56:15.037Z,81.80
2022-08-21T08:58:45.303Z,81.45
2022-08-21T09:01:21.508Z,80.96
2022-08-21T09:03:52.259Z,80.24
2022-08-21T09:06:45.323Z,80.02
2022-08-21T09:10:10.028Z,79.82
2022-08-21T09:12:52.117Z,79.88
2022-08-21T09:15:32.722Z,79.77
2022-08-21T09:18:23.585Z,79.18
2022-08-21T09:21:18.532Z,78.93
2022-08-21T09:24:10.937Z,77.85
2022-08-21T09:26:43.827Z,77.58
2022-08-21T09:29:12.229Z,77.99
2022-08-21T09:31:39.062Z,78.77
2022-08-21T09:34:15.119Z,78.89
2022-08-21T09:36:45.477Z,77.81
2022-08-21T09:39:14.321Z,76.71
2022-08-21T09:41:41.069Z,77.18
2022-08-21T09:44:09.417Z,78.00
2022-08-21T09:46:36.876Z,78.27
2022-08-21T09:49:06.003Z,77.18
2022-08-21T09:51:37.261Z,76.13
2022-08-21T09:54:07.181Z,77.12
2022-08-21T09:56:59.453Z,77.21
2022-08-21T09:59:35.688Z,77.69
2022-08-21T10:02:32.605Z,76.82
2022-08-21T10:05:09.154Z,76.08
2022-08-21T10:07:40.327Z,76.70
2022-08-21T10:10:31.442Z,76.20
2022-08-21T10:13:16.601Z,75.33
2022-08-21T10:16:15.529Z,74.79
2022-08-21T10:19:03.819Z,75.37
2022-08-21T10:22:10.508Z,75.73
2022-08-21T10:24:47.036Z,75.70
2022-08-21T10:27:38.727Z,75.38
2022-08-21T10:30:27.860Z,75.73
2022-08-21T10:33:22.730Z,76.07
2022-08-21T10:36:11.735Z,75.98
2022-08-21T10:39:35.882Z,75.59
2022-08-21T10:42:28.053Z,75.55
2022-08-21T10:45:42.924Z,75.66
2022-08-21T10:48:23.623Z,75.40
2022-08-21T10:51:06.709Z,75.30
2022-08-21T10:53:57.991Z,75.33
2022-08-21T10:56:39.750Z,75.30
2022-08-21T10:59:38.648Z,75.48
2022-08-21T11:02:16.316Z,75.08
2022-08-21T11:05:01.236Z,75.36
2022-08-21T11:07:44.164Z,74.97
2022-08-21T11:10:22.537Z,74.41
2022-08-21T11:13:08.640Z,71.54
2022-08-21T11:15:44.857Z,71.65
2022-08-21T11:18:48.508Z,70.90
2022-08-21T11:21:44.371Z,71.83
2022-08-21T11:25:01.805Z,72.30
2022-08-21T11:27:31.823Z,72.14
2022-08-21T11:30:06.626Z,70.53
2022-08-21T11:33:24.104Z,69.87
2022-08-21T11:36:47.084Z,70.13
2022-08-21T11:39:41.722Z,69.05
2022-08-21T11:42:31.078Z,69.24
2022-08-21T11:45:53.633Z,69.74
2022-08-21T11:48:55.333Z,69.02
2022-08-21T11:52:46.932Z,63.64
2022-08-21T11:55:23.703Z,61.62
2022-08-21T11:58:52.282Z,61.84
2022-08-21T12:02:23.495Z,63.22
2022-08-21T12:06:04.186Z,64.40
2022-08-21T12:09:28.094Z,64.72
2022-08-21T12:13:40.699Z,62.26
2022-08-21T12:17:31.955Z,62.01
2022-08-21T12:21:04.576Z,62.87
2022-08-21T12:24:42.308Z,63.34
2022-08-21T12:28:31.968Z,61.74
2022-08-21T12:31:20.333Z,61.03
2022-08-21T12:35:06.899Z,61.81
2022-08-21T12:38:34.359Z,61.28
2022-08-21T12:42:07.025Z,61.60
2022-08-21T12:45:47.701Z,62.55
2022-08-21T12:49:26.794Z,63.27
2022-08-21T12:53:03.893Z,63.38
2022-08-21T12:56:30.971Z,63.07
2022-08-21T13:00:17.565Z,62.63
2022-08-21T13:03:46.030Z,62.05
2022-08-21T13:07:30.929Z,62.49
2022-08-21T13:11:17.813Z,62.60
2022-08-21T13:15:15.354Z,62.72
2022-08-21T13:18:46.398Z,62.79
2022-08-21T13:22:03.975Z,63.02
2022-08-21T13:26:10.304Z,62.79
2022-08-21T13:29:28.060Z,62.76
2022-08-21T13:32:56.933Z,62.74
2022-08-21T13:36:45.624Z,62.84
2022-08-21T13:40:12.834Z,62.82
2022-08-21T13:43:59.185Z,62.99
2022-08-21T13:47:08.269Z,63.17
2022-08-21T13:50:34.737Z,62.62
2022-08-21T13:54:18.412Z,62.76
2022-08-21T13:57:45.342Z,63.27
2022-08-21T14:01:12.506Z,63.26
2022-08-21T14:05:14.053Z,63.42
2022-08-21T14:09:12.573Z,63.48
2022-08-21T14:12:42.488Z,62.66
2022-08-21T14:16:29.681Z,62.83
2022-08-21T14:20:16.270Z,62.26
2022-08-21T14:23:54.277Z,62.05
2022-08-21T14:26:54.437Z,62.20
2022-08-21T14:30:28.899Z,62.72
2022-08-21T14:34:29.309Z,63.06
2022-08-21T14:37:34.029Z,62.59
2022-08-21T14:41:20.939Z,62.75
2022-08-21T14:44:47.744Z,62.97
2022-08-21T14:48:11.347Z,63.06
2022-08-21T14:51:38.024Z,63.58
2022-08-21T14:55:15.788Z,63.69
2022-08-21T14:58:26.365Z,63.46
2022-08-21T15:01:57.258Z,62.55
2022-08-21T15:05:31.419Z,61.99
2022-08-21T15:08:40.649Z,62.73
2022-08-21T15:12:15.438Z,63.13
2022-08-21T15:15:43.027Z,63.28
2022-08-21T15:19:30.229Z,63.57
2022-08-21T15:23:16.856Z,63.76
2022-08-21T15:27:03.414Z,63.64
2022-08-21T15:30:50.213Z,63.98
2022-08-21T15:34:28.599Z,63.93
2022-08-21T15:38:15.430Z,63.64
2022-08-21T15:41:31.387Z,63.31
2022-08-21T15:45:07.061Z,63.31
2022-08-21T15:48:57.919Z,63.41
2022-08-21T15:52:46.431Z,63.26
2022-08-21T15:55:53.725Z,64.00
2022-08-21T15:59:00.946Z,64.83
2022-08-21T16:02:35.190Z,65.21
2022-08-21T16:06:02.370Z,65.91
2022-08-21T16:09:48.925Z,66.48
2022-08-21T16:13:06.310Z,66.86
2022-08-21T16:16:29.153Z,67.00
2022-08-21T16:20:21.904Z,67.31
2022-08-21T16:24:04.702Z,68.19
2022-08-21T16:27:51.565Z,68.53
2022-08-21T16:31:39.391Z,68.83
2022-08-21T16:34:49.768Z,69.06
2022-08-21T16:38:20.678Z,69.61
2022-08-21T16:41:34.987Z,70.08
2022-08-21T16:44:42.084Z,70.50
2022-08-21T16:48:11.416Z,70.58
2022-08-21T16:51:53.781Z,70.37
2022-08-21T16:55:20.576Z,70.31
2022-08-21T16:58:35.809Z,70.09
2022-08-21T17:01:52.404Z,70.03
2022-08-21T17:04:57.689Z,70.06
2022-08-21T17:08:09.513Z,69.81
2022-08-21T17:11:37.549Z,69.76
2022-08-21T17:15:06.736Z,69.78
2022-08-21T17:18:34.376Z,69.68
2022-08-21T17:21:56.569Z,69.52
2022-08-21T17:25:42.903Z,69.51
2022-08-21T17:28:47.433Z,69.47
2022-08-21T17:32:11.181Z,69.31
2022-08-21T17:35:10.249Z,69.20
2022-08-21T17:38:25.437Z,69.27
2022-08-21T17:41:57.829Z,69.42
2022-08-21T17:45:07.171Z,69.62
2022-08-21T17:48:14.196Z,69.74
2022-08-21T17:51:30.030Z,69.81
2022-08-21T17:54:57.382Z,69.96
2022-08-21T17:58:21.598Z,69.92
2022-08-21T18:01:29.183Z,69.80
2022-08-21T18:04:15.557Z,69.89
2022-08-21T18:07:02.931Z,69.88
2022-08-21T18:10:12.411Z,69.88
2022-08-21T18:13:46.550Z,69.97
2022-08-21T18:17:20.972Z,70.01
2022-08-21T18:21:07.365Z,70.19
2022-08-21T18:24:35.781Z,70.10
2022-08-21T18:28:22.020Z,70.17
2022-08-21T18:31:28.548Z,70.19
2022-08-21T18:34:53.910Z,70.17
2022-08-21T18:38:28.701Z,70.06
2022-08-21T18:41:55.519Z,69.94
2022-08-21T18:45:22.292Z,69.80
2022-08-21T18:48:53.380Z,69.67
2022-08-21T18:52:20.281Z,69.74
2022-08-21T18:55:27.693Z,69.61
2022-08-21T18:58:34.857Z,69.80
2022-08-21T19:01:42.286Z,69.98
2022-08-21T19:04:43.706Z,70.09
2022-08-21T19:07:51.789Z,70.16
2022-08-21T19:10:45.718Z,70.32
2022-08-21T19:13:35.659Z,70.37
2022-08-21T19:16:14.521Z,70.63
2022-08-21T19:19:49.643Z,70.92
2022-08-21T19:23:29.260Z,71.49
2022-08-21T19:26:40.806Z,72.00
2022-08-21T19:29:48.334Z,72.42
2022-08-21T19:33:07.718Z,72.90
2022-08-21T19:36:34.658Z,73.26
2022-08-21T19:39:22.506Z,73.80
2022-08-21T19:42:14.330Z,74.12
2022-08-21T19:45:18.447Z,74.44
2022-08-21T19:48:30.745Z,74.70
2022-08-21T19:51:45.938Z,74.96
2022-08-21T19:54:52.898Z,75.16
2022-08-21T19:58:15.670Z,75.32
2022-08-21T20:01:18.707Z,75.49
2022-08-21T20:04:53.862Z,75.66
2022-08-21T20:08:28.978Z,75.75
2022-08-21T20:11:57.144Z,75.99
2022-08-21T20:15:26.088Z,76.17
2022-08-21T20:18:48.215Z,76.26
2022-08-21T20:22:31.474Z,76.27
2022-08-21T20:25:40.584Z,76.19
2022-08-21T20:29:07.621Z,76.21
2022-08-21T20:32:49.893Z,76.29
2022-08-21T20:36:17.566Z,76.58
2022-08-21T20:40:03.966Z,76.93
2022-08-21T20:47:18.807Z,77.21
2022-08-21T20:50:28.936Z,77.15
2022-08-21T20:53:43.127Z,77.13
2022-08-21T20:56:33.361Z,77.33
2022-08-21T20:59:15.385Z,77.52
2022-08-21T21:02:29.608Z,77.38
2022-08-21T21:05:30.653Z,77.41
2022-08-21T21:08:24.123Z,77.30
2022-08-21T21:11:46.304Z,77.32
2022-08-21T21:14:50.816Z,77.45
2022-08-21T21:17:43.352Z,77.54
2022-08-21T21:20:49.941Z,77.68
2022-08-21T21:24:04.705Z,77.67
2022-08-21T21:27:20.054Z,77.75
2022-08-21T21:30:35.830Z,78.05
2022-08-21T21:33:43.488Z,78.13
2022-08-21T21:37:06.942Z,78.23
2022-08-21T21:40:33.953Z,78.24
2022-08-21T21:43:31.009Z,78.16
2022-08-21T21:47:25.537Z,78.08
2022-08-21T21:50:36.527Z,78.09
2022-08-21T21:53:26.752Z,78.28
2022-08-21T21:56:10.682Z,78.40
2022-08-21T21:59:16.988Z,78.44
2022-08-21T22:02:33.909Z,78.67
2022-08-21T22:05:37.421Z,78.55
2022-08-21T22:08:36.930Z,79.05
2022-08-21T22:11:58.280Z,78.97
2022-08-21T22:15:08.865Z,79.27
2022-08-21T22:17:45.049Z,79.65
2022-08-21T22:21:09.817Z,79.71
2022-08-21T22:24:37.150Z,79.77
2022-08-21T22:28:28.129Z,79.88
2022-08-21T22:31:24.638Z,80.12
2022-08-21T22:34:32.442Z,80.17
2022-08-21T22:37:33.233Z,80.45
2022-08-21T22:40:45.124Z,80.33
2022-08-21T22:44:12.125Z,79.94
2022-08-21T22:47:52.311Z,79.85
2022-08-21T22:50:52.380Z,79.72
2022-08-21T22:53:46.980Z,79.61
2022-08-21T22:56:53.697Z,79.60
2022-08-21T23:00:13.025Z,79.60
2022-08-21T23:03:31.101Z,79.67
2022-08-21T23:07:00.985Z,79.71
2022-08-21T23:10:14.420Z,79.80
2022-08-21T23:13:09.534Z,80.23
2022-08-21T23:16:33.437Z,80.54
2022-08-21T23:19:45.719Z,80.61
2022-08-21T23:22:22.566Z,80.70
2022-08-21T23:25:52.580Z,80.91
2022-08-21T23:29:24.751Z,81.12
2022-08-21T23:33:22.057Z,81.31
2022-08-21T23:36:45.517Z,81.22
2022-08-21T23:39:51.719Z,81.33
2022-08-21T23:43:29.218Z,81.30
2022-08-21T23:46:40.146Z,81.21
2022-08-21T23:49:44.156Z,81.30
2022-08-21T23:53:16.297Z,81.60
2022-08-21T23:56:45.314Z,81.71
2022-08-21T23:59:55.107Z,82.02
